BTK6317 WALL-WIOO
Flight info
| Callsign | BTK6317 |
|---|---|
| Flight time | N/A |
| Altitude | 36000 |
| Route | GUGUP DCT ISRID W36 OSRUT |
| Aircraft | A20N/M-SDE2E3FGHIRWXY/LB1 |
Departure
| Time | 2026-05-06 13:04 |
|---|---|
| Airport | Sultan Aji Muhammad Sulaiman Sepinggan International Airport (WALL) |
Arrival
| Time | N/A |
|---|---|
| Airport | Supadio International Airport (WIOO) |
| Time | Latitude | Longitude | Altitude | Speed | Heading |
|---|---|---|---|---|---|
| 2026-05-06 12:46 | -1.26329 | 116.89809 | 21 ft | 0 kts | 339° |
| 2026-05-06 12:56 | -1.26336 | 116.89811 | 22 ft | 2 kts | 339° |
| 2026-05-06 12:57 | -1.26350 | 116.89817 | 20 ft | 2 kts | 339° |
| 2026-05-06 12:57 | -1.26364 | 116.89822 | 23 ft | 2 kts | 334° |
| 2026-05-06 12:57 | -1.26377 | 116.89830 | 23 ft | 2 kts | 311° |
| 2026-05-06 12:57 | -1.26385 | 116.89842 | 24 ft | 2 kts | 288° |
| 2026-05-06 12:58 | -1.26388 | 116.89857 | 23 ft | 2 kts | 265° |
| 2026-05-06 12:58 | -1.26386 | 116.89868 | 23 ft | 0 kts | 259° |
| 2026-05-06 13:01 | -1.26387 | 116.89866 | 23 ft | 2 kts | 259° |
| 2026-05-06 13:01 | -1.26409 | 116.89804 | 20 ft | 16 kts | 248° |
| 2026-05-06 13:01 | -1.26489 | 116.89791 | 21 ft | 15 kts | 120° |
| 2026-05-06 13:01 | -1.26464 | 116.89890 | 20 ft | 15 kts | 67° |
| 2026-05-06 13:02 | -1.26421 | 116.89995 | 20 ft | 18 kts | 67° |
| 2026-05-06 13:02 | -1.26371 | 116.90113 | 23 ft | 19 kts | 67° |
| 2026-05-06 13:02 | -1.26317 | 116.90245 | 21 ft | 21 kts | 68° |
| 2026-05-06 13:02 | -1.26270 | 116.90361 | 22 ft | 16 kts | 70° |
| 2026-05-06 13:03 | -1.26295 | 116.90453 | 21 ft | 15 kts | 141° |
| 2026-05-06 13:03 | -1.26386 | 116.90473 | 22 ft | 11 kts | 193° |
| 2026-05-06 13:03 | -1.26430 | 116.90409 | 22 ft | 15 kts | 246° |
| 2026-05-06 13:03 | -1.26559 | 116.90101 | 20 ft | 90 kts | 246° |
| 2026-05-06 13:04 | -1.26897 | 116.89296 | 46 ft | 155 kts | 247° |
| 2026-05-06 13:04 | -1.27315 | 116.88329 | 842 ft | 149 kts | 245° |
| 2026-05-06 13:04 | -1.27756 | 116.87366 | 1620 ft | 156 kts | 245° |
| 2026-05-06 13:04 | -1.28178 | 116.86341 | 2241 ft | 168 kts | 245° |
| 2026-05-06 13:05 | -1.28618 | 116.85190 | 2725 ft | 188 kts | 253° |
| 2026-05-06 13:05 | -1.28661 | 116.83830 | 3187 ft | 212 kts | 275° |
| 2026-05-06 13:05 | -1.28462 | 116.82254 | 3587 ft | 237 kts | 276° |
| 2026-05-06 13:05 | -1.28243 | 116.80546 | 4108 ft | 259 kts | 276° |